Time;durP1;ratioP1;P1;durP2;ratioP2;P2;SDS_P1;SDS_P2;PMS_P1;PMS_P2;Temp;Humidity;BMP_temperature;BMP_pressure;BME280_temperature;BME280_humidity;BME280_pressure;Samples;Min_cycle;Max_cycle;Signal;HPM_P1;HPM_P2
2022/01/24 00:01:41;;;;;;;;;;;;;;;;;;5075975;28;19954;-94
2022/01/24 00:04:08;;;;;;;;;;;;;;;;;;5075769;28;19904;-94
2022/01/24 00:06:33;;;;;;;;;;;;;;;;;;5075817;28;19957;-94
2022/01/24 00:08:58;;;;;;;;;;;;;;;;;;5075809;28;19919;-94
2022/01/24 00:11:29;;;;;;;;;;;;;;;;;;5075712;28;19955;-94
2022/01/24 00:27:47;;;;;;;;;;;;;;;;;;5076654;28;20378;-94
2022/01/24 00:30:12;;;;;;;;;;;;;;;;;;5075245;28;20014;-95
2022/01/24 00:32:37;;;;;;;;;;;;;;;;;;5075224;28;20394;-94
2022/01/24 00:35:02;;;;;;;;;;;;;;;;;;5075299;28;19908;-94
2022/01/24 00:37:32;;;;;;;;;;;;;;;;;;5075142;28;20011;-94
2022/01/24 00:39:58;;;;;;;;;;;;;;;;;;5075425;28;19904;-95
2022/01/24 00:45:10;;;;;;;;;;;;;;;;;;5076717;28;19904;-94
2022/01/24 00:53:31;;;;;;;;;;;;;;;;;;5076088;28;20000;-93
2022/01/24 00:55:56;;;;;;;;;;;;;;;;;;5074794;28;19911;-93
2022/01/24 00:58:21;;;;;;;;;;;;;;;;;;5074718;28;19904;-95
2022/01/24 01:00:46;;;;;;;;;;;;;;;;;;5074515;28;19908;-94
2022/01/24 01:03:11;;;;;;;;;;;;;;;;;;5074637;28;19915;-95
2022/01/24 01:18:05;;;;;;;;;;;;;;;;;;5075958;28;19905;-94
2022/01/24 01:18:58;;;;;;;;;;;;;;;;;;5075424;28;19935;-93
2022/01/24 01:21:23;;;;;;;;;;;;;;;;;;5074426;28;19912;-95
2022/01/24 01:23:51;;;;;;;;;;;;;;;;;;5074319;28;19920;-94
2022/01/24 01:26:41;;;;;;;;;;;;;;;;;;5073994;28;20485;-94
2022/01/24 01:29:14;;;;;;;;;;;;;;;;;;5074245;28;19921;-94
2022/01/24 01:39:54;;;;;;;;;;;;;;;;;;5075200;28;19957;-95
2022/01/24 01:55:54;;;;;;;;;;;;;;;;;;5075112;28;19956;-94
2022/01/24 01:58:20;;;;;;;;;;;;;;;;;;5073729;28;20019;-94
2022/01/24 02:00:45;;;;;;;;;;;;;;;;;;5073631;28;19911;-93
2022/01/24 02:03:10;;;;;;;;;;;;;;;;;;5073670;28;19904;-94
2022/01/24 02:05:35;;;;;;;;;;;;;;;;;;5073746;28;19905;-93
2022/01/24 02:08:01;;;;;;;;;;;;;;;;;;5073590;28;19911;-95
2022/01/24 02:10:26;;;;;;;;;;;;;;;;;;5073624;28;20336;-95
2022/01/24 02:12:52;;;;;;;;;;;;;;;;;;5073637;28;19905;-95
2022/01/24 02:15:28;;;;;;;;;;;;;;;;;;5059320;28;20357;-94
2022/01/24 02:21:05;;;;;;;;;;;;;;;;;;5054621;28;19995;-94
2022/01/24 02:25:52;;;;;;;;;;;;;;;;;;5055040;28;19905;-94
2022/01/24 02:28:19;;;;;;;;;;;;;;;;;;5053574;28;19905;-93
2022/01/24 02:31:18;;;;;;;;;;;;;;;;;;5053246;28;19908;-94
2022/01/24 02:33:39;;;;;;;;;;;;;;;;;;5054365;28;19905;-94
2022/01/24 02:36:04;;;;;;;;;;;;;;;;;;5053356;28;19995;-94
2022/01/24 02:49:14;;;;;;;;;;;;;;;;;;5058397;28;19915;-93
2022/01/24 02:51:46;;;;;;;;;;;;;;;;;;5057363;28;19939;-94
2022/01/24 02:54:11;;;;;;;;;;;;;;;;;;5057070;28;19904;-94
2022/01/24 02:56:36;;;;;;;;;;;;;;;;;;5057067;28;19955;-93
2022/01/24 02:59:01;;;;;;;;;;;;;;;;;;5057145;28;19912;-94
2022/01/24 03:01:26;;;;;;;;;;;;;;;;;;5057052;28;19943;-94
2022/01/24 03:03:51;;;;;;;;;;;;;;;;;;5057159;28;19912;-94
2022/01/24 03:06:16;;;;;;;;;;;;;;;;;;5056875;28;19912;-94
2022/01/24 03:08:42;;;;;;;;;;;;;;;;;;5056793;28;19915;-94
2022/01/24 03:11:07;;;;;;;;;;;;;;;;;;5056965;28;19911;-94
2022/01/24 03:13:33;;;;;;;;;;;;;;;;;;5056932;28;19905;-94
2022/01/24 03:15:58;;;;;;;;;;;;;;;;;;5057030;28;19987;-94
2022/01/24 03:18:23;;;;;;;;;;;;;;;;;;5056854;28;19912;-94
2022/01/24 03:20:48;;;;;;;;;;;;;;;;;;5056732;28;19913;-94
2022/01/24 03:23:13;;;;;;;;;;;;;;;;;;5056562;28;19939;-94
2022/01/24 03:25:38;;;;;;;;;;;;;;;;;;5056566;28;19958;-95
2022/01/24 03:28:04;;;;;;;;;;;;;;;;;;5056604;28;19908;-95
2022/01/24 03:30:29;;;;;;;;;;;;;;;;;;5056394;28;19913;-94
2022/01/24 03:32:54;;;;;;;;;;;;;;;;;;5056379;28;19905;-93
2022/01/24 03:35:19;;;;;;;;;;;;;;;;;;5056388;28;19913;-93
2022/01/24 03:37:44;;;;;;;;;;;;;;;;;;5056417;28;19995;-93
2022/01/24 03:40:09;;;;;;;;;;;;;;;;;;5056328;28;20382;-94
2022/01/24 03:42:34;;;;;;;;;;;;;;;;;;5056253;28;20003;-94
2022/01/24 03:45:04;;;;;;;;;;;;;;;;;;5056322;28;19999;-94
2022/01/24 03:50:00;;;;;;;;;;;;;;;;;;5057211;28;19913;-93
2022/01/24 03:52:26;;;;;;;;;;;;;;;;;;5056093;28;19912;-94
2022/01/24 03:54:51;;;;;;;;;;;;;;;;;;5056126;28;19911;-93
2022/01/24 03:57:16;;;;;;;;;;;;;;;;;;5055966;28;19909;-94
2022/01/24 03:59:41;;;;;;;;;;;;;;;;;;5056061;28;19915;-94
2022/01/24 04:02:06;;;;;;;;;;;;;;;;;;5055987;28;19908;-94
2022/01/24 04:04:31;;;;;;;;;;;;;;;;;;5055921;28;20395;-94
2022/01/24 04:06:56;;;;;;;;;;;;;;;;;;5056005;28;20394;-94
2022/01/24 04:09:21;;;;;;;;;;;;;;;;;;5055704;28;20020;-94
2022/01/24 04:11:51;;;;;;;;;;;;;;;;;;5055710;28;19954;-93
2022/01/24 04:14:29;;;;;;;;;;;;;;;;;;5055860;28;19943;-94
2022/01/24 04:22:09;;;;;;;;;;;;;;;;;;5056946;28;19999;-93
2022/01/24 04:24:34;;;;;;;;;;;;;;;;;;5055442;28;19947;-94
2022/01/24 04:26:59;;;;;;;;;;;;;;;;;;5055449;28;19916;-94
2022/01/24 04:29:24;;;;;;;;;;;;;;;;;;5055304;28;19909;-94
2022/01/24 04:31:49;;;;;;;;;;;;;;;;;;5055263;28;19916;-94
2022/01/24 04:34:14;;;;;;;;;;;;;;;;;;5055262;28;19912;-94
2022/01/24 04:36:40;;;;;;;;;;;;;;;;;;5055377;28;19909;-93
2022/01/24 04:39:05;;;;;;;;;;;;;;;;;;5055206;28;20348;-93
2022/01/24 04:41:37;;;;;;;;;;;;;;;;;;5055493;28;19913;-93
2022/01/24 04:54:41;;;;;;;;;;;;;;;;;;5025258;28;19960;-94
2022/01/24 04:57:07;;;;;;;;;;;;;;;;;;5054941;28;20011;-94
2022/01/24 04:59:32;;;;;;;;;;;;;;;;;;5054834;28;19962;-94
2022/01/24 05:01:57;;;;;;;;;;;;;;;;;;5054148;28;19908;-94
2022/01/24 05:04:23;;;;;;;;;;;;;;;;;;5054836;28;19948;-94
2022/01/24 05:06:48;;;;;;;;;;;;;;;;;;5054741;28;19905;-94
2022/01/24 05:09:13;;;;;;;;;;;;;;;;;;5054750;28;20276;-94
2022/01/24 05:11:56;;;;;;;;;;;;;;;;;;5054627;28;19912;-93
2022/01/24 05:25:17;;;;;;;;;;;;;;;;;;5055621;28;19912;-94
2022/01/24 05:27:43;;;;;;;;;;;;;;;;;;5054305;28;19912;-94
2022/01/24 05:30:08;;;;;;;;;;;;;;;;;;5054220;28;19915;-94
2022/01/24 05:32:33;;;;;;;;;;;;;;;;;;5054171;28;19912;-95
2022/01/24 05:34:58;;;;;;;;;;;;;;;;;;5054325;28;20330;-95
2022/01/24 05:37:23;;;;;;;;;;;;;;;;;;5054280;28;19909;-94
2022/01/24 05:39:48;;;;;;;;;;;;;;;;;;5054114;28;19908;-93
2022/01/24 05:42:13;;;;;;;;;;;;;;;;;;5054037;28;19905;-94
2022/01/24 05:44:38;;;;;;;;;;;;;;;;;;5054115;28;19957;-94
2022/01/24 05:47:04;;;;;;;;;;;;;;;;;;5053909;28;20272;-94
2022/01/24 05:49:29;;;;;;;;;;;;;;;;;;5053978;28;20383;-94
2022/01/24 05:51:54;;;;;;;;;;;;;;;;;;5053905;28;19904;-93
2022/01/24 05:54:19;;;;;;;;;;;;;;;;;;5053834;28;20353;-94
2022/01/24 05:56:44;;;;;;;;;;;;;;;;;;5053843;28;19999;-94
2022/01/24 05:59:09;;;;;;;;;;;;;;;;;;5053756;28;19916;-94
2022/01/24 06:01:35;;;;;;;;;;;;;;;;;;5053787;28;19929;-94
2022/01/24 06:04:00;;;;;;;;;;;;;;;;;;5053833;28;20351;-93
2022/01/24 06:06:25;;;;;;;;;;;;;;;;;;5053761;28;19934;-94
2022/01/24 06:08:50;;;;;;;;;;;;;;;;;;5053544;28;19957;-94
2022/01/24 06:11:15;;;;;;;;;;;;;;;;;;5053578;28;19905;-94
2022/01/24 06:13:41;;;;;;;;;;;;;;;;;;5053644;28;20035;-94
2022/01/24 06:16:07;;;;;;;;;;;;;;;;;;5053620;28;19905;-94
2022/01/24 06:18:32;;;;;;;;;;;;;;;;;;5053620;28;20056;-94
2022/01/24 06:20:58;;;;;;;;;;;;;;;;;;5053499;28;19912;-94
2022/01/24 06:23:25;;;;;;;;;;;;;;;;;;5053564;28;20370;-94
2022/01/24 06:25:50;;;;;;;;;;;;;;;;;;5053518;28;19908;-94
2022/01/24 06:28:15;;;;;;;;;;;;;;;;;;5053459;28;19912;-94
2022/01/24 06:30:40;;;;;;;;;;;;;;;;;;5053280;28;19909;-94
2022/01/24 06:33:05;;;;;;;;;;;;;;;;;;5053506;28;19905;-94
2022/01/24 06:35:30;;;;;;;;;;;;;;;;;;5053392;28;19952;-94
2022/01/24 06:37:55;;;;;;;;;;;;;;;;;;5053388;28;20003;-94
2022/01/24 06:40:21;;;;;;;;;;;;;;;;;;5053369;28;19991;-93
2022/01/24 06:42:46;;;;;;;;;;;;;;;;;;5053295;28;20007;-94
2022/01/24 06:45:11;;;;;;;;;;;;;;;;;;5053336;28;19955;-94
2022/01/24 06:47:36;;;;;;;;;;;;;;;;;;5053228;28;19904;-94
2022/01/24 06:50:01;;;;;;;;;;;;;;;;;;5053273;28;19912;-93
2022/01/24 06:52:26;;;;;;;;;;;;;;;;;;5053267;28;20248;-94
2022/01/24 06:54:51;;;;;;;;;;;;;;;;;;5053205;28;19905;-94
2022/01/24 06:57:16;;;;;;;;;;;;;;;;;;5053238;28;19911;-93
2022/01/24 06:59:41;;;;;;;;;;;;;;;;;;5053334;28;19917;-94
2022/01/24 07:02:07;;;;;;;;;;;;;;;;;;5053168;28;20248;-94
2022/01/24 07:04:33;;;;;;;;;;;;;;;;;;5053105;28;19904;-95
2022/01/24 07:06:58;;;;;;;;;;;;;;;;;;5053156;28;20039;-94
2022/01/24 07:09:23;;;;;;;;;;;;;;;;;;5053045;28;20257;-94
2022/01/24 07:11:50;;;;;;;;;;;;;;;;;;5053146;28;19944;-95
2022/01/24 07:14:15;;;;;;;;;;;;;;;;;;5053026;28;20003;-93
2022/01/24 07:19:20;;;;;;;;;;;;;;;;;;5054432;28;19913;-94
2022/01/24 07:21:46;;;;;;;;;;;;;;;;;;5053033;28;19909;-94
2022/01/24 07:24:11;;;;;;;;;;;;;;;;;;5054337;28;19999;-94
2022/01/24 07:26:36;;;;;;;;;;;;;;;;;;5056550;28;20324;-94
2022/01/24 07:29:01;;;;;;;;;;;;;;;;;;5056711;28;20403;-94
2022/01/24 07:31:26;;;;;;;;;;;;;;;;;;5056584;28;20280;-95
2022/01/24 07:33:51;;;;;;;;;;;;;;;;;;5056485;28;19905;-93
2022/01/24 07:36:16;;;;;;;;;;;;;;;;;;5056739;28;20249;-94
2022/01/24 07:38:41;;;;;;;;;;;;;;;;;;5056451;28;20113;-94
2022/01/24 07:41:07;;;;;;;;;;;;;;;;;;5056389;28;19905;-94
2022/01/24 07:43:32;;;;;;;;;;;;;;;;;;5056323;28;19911;-93
2022/01/24 07:45:57;;;;;;;;;;;;;;;;;;5056258;28;19909;-94
2022/01/24 07:48:22;;;;;;;;;;;;;;;;;;5056167;28;19904;-94
2022/01/24 07:50:47;;;;;;;;;;;;;;;;;;5055990;28;19909;-94
2022/01/24 07:53:13;;;;;;;;;;;;;;;;;;5056263;28;19940;-95
2022/01/24 07:55:38;;;;;;;;;;;;;;;;;;5055946;28;20405;-94
2022/01/24 07:58:03;;;;;;;;;;;;;;;;;;5056000;28;19909;-94
2022/01/24 08:00:28;;;;;;;;;;;;;;;;;;5056075;28;19911;-94
2022/01/24 08:02:53;;;;;;;;;;;;;;;;;;5055922;28;19905;-95
2022/01/24 08:05:18;;;;;;;;;;;;;;;;;;5055901;28;19908;-94
2022/01/24 08:07:43;;;;;;;;;;;;;;;;;;5069647;28;20026;-95
2022/01/24 08:10:08;;;;;;;;;;;;;;;;;;5075696;28;19962;-94
2022/01/24 08:12:34;;;;;;;;;;;;;;;;;;5075689;28;19927;-94
2022/01/24 08:15:00;;;;;;;;;;;;;;;;;;5075739;28;19909;-93
2022/01/24 08:17:25;;;;;;;;;;;;;;;;;;5075639;28;19904;-93
2022/01/24 08:19:50;;;;;;;;;;;;;;;;;;5075417;28;19912;-94
2022/01/24 08:22:15;;;;;;;;;;;;;;;;;;5075684;28;19913;-94
2022/01/24 08:24:41;;;;;;;;;;;;;;;;;;5075563;28;19904;-94
2022/01/24 08:27:06;;;;;;;;;;;;;;;;;;5075529;28;19905;-94
2022/01/24 08:29:31;;;;;;;;;;;;;;;;;;5075319;28;19915;-94
2022/01/24 08:31:56;;;;;;;;;;;;;;;;;;5075290;28;19911;-95
2022/01/24 08:34:21;;;;;;;;;;;;;;;;;;5075366;28;19904;-94
2022/01/24 08:36:47;;;;;;;;;;;;;;;;;;5074267;28;19908;-94
2022/01/24 08:39:12;;;;;;;;;;;;;;;;;;5075342;28;19908;-93
2022/01/24 08:46:56;;;;;;;;;;;;;;;;;;5076749;28;19904;-94
2022/01/24 08:49:21;;;;;;;;;;;;;;;;;;5074892;28;19961;-93
2022/01/24 08:51:47;;;;;;;;;;;;;;;;;;5074988;28;20310;-94
2022/01/24 08:54:13;;;;;;;;;;;;;;;;;;5074957;28;19950;-94
2022/01/24 08:56:38;;;;;;;;;;;;;;;;;;5075020;28;19905;-94
2022/01/24 08:59:04;;;;;;;;;;;;;;;;;;5074809;28;19928;-94
2022/01/24 09:01:29;;;;;;;;;;;;;;;;;;5074769;28;19913;-93
2022/01/24 09:03:54;;;;;;;;;;;;;;;;;;5074654;28;19929;-95
2022/01/24 09:06:21;;;;;;;;;;;;;;;;;;5074638;28;20010;-94
2022/01/24 09:08:46;;;;;;;;;;;;;;;;;;5074748;28;20267;-94
2022/01/24 09:11:11;;;;;;;;;;;;;;;;;;5074557;28;19908;-94
2022/01/24 09:13:36;;;;;;;;;;;;;;;;;;5074514;28;19957;-94
2022/01/24 09:16:01;;;;;;;;;;;;;;;;;;5074460;28;19958;-94
2022/01/24 09:18:26;;;;;;;;;;;;;;;;;;5074529;28;19905;-94
2022/01/24 09:20:52;;;;;;;;;;;;;;;;;;5074353;28;19946;-94
2022/01/24 09:23:17;;;;;;;;;;;;;;;;;;5074428;28;19904;-93
2022/01/24 09:25:42;;;;;;;;;;;;;;;;;;5074325;28;19944;-94
2022/01/24 09:28:07;;;;;;;;;;;;;;;;;;5074114;28;20002;-95
2022/01/24 09:30:33;;;;;;;;;;;;;;;;;;5074166;28;19959;-95
2022/01/24 09:32:58;;;;;;;;;;;;;;;;;;5074176;28;19965;-94
2022/01/24 09:35:23;;;;;;;;;;;;;;;;;;5074211;28;19911;-94
2022/01/24 09:37:48;;;;;;;;;;;;;;;;;;5074187;28;19904;-94
2022/01/24 09:40:15;;;;;;;;;;;;;;;;;;5074000;28;19952;-95
2022/01/24 09:42:40;;;;;;;;;;;;;;;;;;5074024;28;19917;-94
2022/01/24 09:45:05;;;;;;;;;;;;;;;;;;5074003;28;19926;-93
2022/01/24 09:47:30;;;;;;;;;;;;;;;;;;5073847;28;20343;-94
2022/01/24 09:49:55;;;;;;;;;;;;;;;;;;5073880;28;19915;-94
2022/01/24 09:52:20;;;;;;;;;;;;;;;;;;5073863;28;19911;-94
2022/01/24 09:54:45;;;;;;;;;;;;;;;;;;5073892;28;20276;-93
2022/01/24 09:57:10;;;;;;;;;;;;;;;;;;5073861;28;19904;-95
2022/01/24 09:59:35;;;;;;;;;;;;;;;;;;5073845;28;19904;-94
2022/01/24 10:02:00;;;;;;;;;;;;;;;;;;5073748;28;20013;-94
2022/01/24 10:04:26;;;;;;;;;;;;;;;;;;5073711;28;20423;-94
2022/01/24 10:06:51;;;;;;;;;;;;;;;;;;5073743;28;19904;-94
2022/01/24 10:09:16;;;;;;;;;;;;;;;;;;5073615;28;20284;-95
2022/01/24 10:11:41;;;;;;;;;;;;;;;;;;5073714;28;19912;-95
2022/01/24 10:16:55;;;;;;;;;;;;;;;;;;5074733;28;19911;-93
2022/01/24 10:19:20;;;;;;;;;;;;;;;;;;5073612;28;19935;-94
2022/01/24 10:21:45;;;;;;;;;;;;;;;;;;5073535;28;20340;-94
2022/01/24 10:24:10;;;;;;;;;;;;;;;;;;5073549;28;19909;-94
2022/01/24 10:26:35;;;;;;;;;;;;;;;;;;5073492;28;19905;-95
2022/01/24 10:29:00;;;;;;;;;;;;;;;;;;5073508;28;20394;-95
2022/01/24 10:31:28;;;;;;;;;;;;;;;;;;5073517;28;19905;-95
2022/01/24 10:33:54;;;;;;;;;;;;;;;;;;5073369;28;19904;-94
2022/01/24 10:36:19;;;;;;;;;;;;;;;;;;5073489;28;19915;-95
2022/01/24 10:38:54;;;;;;;;;;;;;;;;;;5073598;28;19959;-94
2022/01/24 10:41:25;;;;;;;;;;;;;;;;;;5073441;28;19909;-95
2022/01/24 10:43:52;;;;;;;;;;;;;;;;;;5073382;28;19912;-95
2022/01/24 10:46:17;;;;;;;;;;;;;;;;;;5073376;28;19987;-94
2022/01/24 10:48:42;;;;;;;;;;;;;;;;;;5073253;28;20279;-95
2022/01/24 10:51:07;;;;;;;;;;;;;;;;;;5073281;28;19909;-94
2022/01/24 10:53:33;;;;;;;;;;;;;;;;;;5073299;28;19995;-94
2022/01/24 10:55:58;;;;;;;;;;;;;;;;;;5073215;28;19911;-94
2022/01/24 10:58:23;;;;;;;;;;;;;;;;;;5073389;28;19904;-96
2022/01/24 11:00:49;;;;;;;;;;;;;;;;;;5077155;28;20371;-95
2022/01/24 11:03:14;;;;;;;;;;;;;;;;;;5077028;28;19904;-95
2022/01/24 11:05:41;;;;;;;;;;;;;;;;;;5077291;28;19923;-94
2022/01/24 11:08:06;;;;;;;;;;;;;;;;;;5076953;28;20379;-94
2022/01/24 11:10:31;;;;;;;;;;;;;;;;;;5076832;28;19908;-94
2022/01/24 11:12:56;;;;;;;;;;;;;;;;;;5076803;28;19914;-94
2022/01/24 11:15:22;;;;;;;;;;;;;;;;;;5076873;28;19905;-94
2022/01/24 11:17:47;;;;;;;;;;;;;;;;;;5076649;28;20002;-94
2022/01/24 11:20:15;;;;;;;;;;;;;;;;;;5076874;28;19913;-94
2022/01/24 11:22:44;;;;;;;;;;;;;;;;;;5076706;28;19966;-94
2022/01/24 11:25:09;;;;;;;;;;;;;;;;;;5076641;28;19954;-94
2022/01/24 11:27:34;;;;;;;;;;;;;;;;;;5076582;28;20010;-94
2022/01/24 11:29:59;;;;;;;;;;;;;;;;;;5076459;28;20022;-94
2022/01/24 11:32:24;;;;;;;;;;;;;;;;;;5076868;28;20453;-94
2022/01/24 11:34:50;;;;;;;;;;;;;;;;;;5076424;28;19908;-94
2022/01/24 11:37:15;;;;;;;;;;;;;;;;;;5076519;28;20284;-94
2022/01/24 11:39:43;;;;;;;;;;;;;;;;;;5076280;28;19908;-94
2022/01/24 11:42:08;;;;;;;;;;;;;;;;;;5076349;28;19936;-95
2022/01/24 11:44:33;;;;;;;;;;;;;;;;;;5076283;28;19905;-94
2022/01/24 11:46:59;;;;;;;;;;;;;;;;;;5076234;28;19905;-94
2022/01/24 11:49:27;;;;;;;;;;;;;;;;;;5076124;28;19915;-94
2022/01/24 11:51:52;;;;;;;;;;;;;;;;;;5076172;28;19911;-94
2022/01/24 11:54:17;;;;;;;;;;;;;;;;;;5076294;28;19940;-94
2022/01/24 11:56:42;;;;;;;;;;;;;;;;;;5075938;28;20372;-94
2022/01/24 11:59:07;;;;;;;;;;;;;;;;;;5076033;28;20114;-94
2022/01/24 12:01:32;;;;;;;;;;;;;;;;;;5075968;28;19990;-96
2022/01/24 12:03:57;;;;;;;;;;;;;;;;;;5075948;28;20007;-95
2022/01/24 12:06:23;;;;;;;;;;;;;;;;;;5075954;28;19995;-95
2022/01/24 12:08:49;;;;;;;;;;;;;;;;;;5075902;28;19964;-94
2022/01/24 12:11:14;;;;;;;;;;;;;;;;;;5075691;28;19999;-95
2022/01/24 12:13:39;;;;;;;;;;;;;;;;;;5075761;28;19931;-95
2022/01/24 12:16:04;;;;;;;;;;;;;;;;;;5075752;28;19950;-95
2022/01/24 12:18:29;;;;;;;;;;;;;;;;;;5075707;28;19905;-94
2022/01/24 12:20:55;;;;;;;;;;;;;;;;;;5075546;28;19958;-95
2022/01/24 12:23:20;;;;;;;;;;;;;;;;;;5075589;28;19939;-94
2022/01/24 12:25:45;;;;;;;;;;;;;;;;;;5075556;28;20249;-94
2022/01/24 12:28:10;;;;;;;;;;;;;;;;;;5075477;28;19904;-94
2022/01/24 12:30:36;;;;;;;;;;;;;;;;;;5075375;28;20352;-94
2022/01/24 12:33:03;;;;;;;;;;;;;;;;;;5076290;28;19904;-95
2022/01/24 12:35:28;;;;;;;;;;;;;;;;;;5075537;28;20270;-95
2022/01/24 12:37:53;;;;;;;;;;;;;;;;;;5075368;28;20356;-95
2022/01/24 12:40:24;;;;;;;;;;;;;;;;;;5075233;28;19904;-95
2022/01/24 12:42:56;;;;;;;;;;;;;;;;;;5075236;28;20007;-95
2022/01/24 12:48:05;;;;;;;;;;;;;;;;;;5076380;28;19958;-95
2022/01/24 12:50:30;;;;;;;;;;;;;;;;;;5075040;28;19916;-94
2022/01/24 12:52:55;;;;;;;;;;;;;;;;;;5074803;28;19904;-94
2022/01/24 12:55:20;;;;;;;;;;;;;;;;;;5075043;28;19912;-93
2022/01/24 12:57:45;;;;;;;;;;;;;;;;;;5074837;28;20279;-94
2022/01/24 13:00:11;;;;;;;;;;;;;;;;;;5074768;28;19904;-95
2022/01/24 13:02:39;;;;;;;;;;;;;;;;;;5074800;28;19904;-95
2022/01/24 13:05:04;;;;;;;;;;;;;;;;;;5074968;28;19911;-94
2022/01/24 13:07:31;;;;;;;;;;;;;;;;;;5074707;28;19904;-95
2022/01/24 13:09:56;;;;;;;;;;;;;;;;;;5074603;28;19944;-94
2022/01/24 13:12:22;;;;;;;;;;;;;;;;;;5074548;28;19905;-95
2022/01/24 13:14:51;;;;;;;;;;;;;;;;;;5074644;28;19904;-95
2022/01/24 13:22:55;;;;;;;;;;;;;;;;;;5075593;28;19919;-94
2022/01/24 13:25:22;;;;;;;;;;;;;;;;;;5074432;28;19912;-95
2022/01/24 13:27:48;;;;;;;;;;;;;;;;;;5074328;28;20002;-95
2022/01/24 13:30:13;;;;;;;;;;;;;;;;;;5074086;28;19970;-95
2022/01/24 13:32:38;;;;;;;;;;;;;;;;;;5074147;28;19999;-95
2022/01/24 13:35:03;;;;;;;;;;;;;;;;;;5074170;28;19911;-94
2022/01/24 13:37:28;;;;;;;;;;;;;;;;;;5074096;28;19911;-95
2022/01/24 13:39:53;;;;;;;;;;;;;;;;;;5073922;28;19912;-95
2022/01/24 13:42:18;;;;;;;;;;;;;;;;;;5074105;28;19928;-95
2022/01/24 13:44:44;;;;;;;;;;;;;;;;;;5074137;28;19912;-96
2022/01/24 13:47:09;;;;;;;;;;;;;;;;;;5074004;28;19993;-95
2022/01/24 13:49:34;;;;;;;;;;;;;;;;;;5073880;28;19963;-94
2022/01/24 13:52:03;;;;;;;;;;;;;;;;;;5073943;28;19912;-95
2022/01/24 13:54:29;;;;;;;;;;;;;;;;;;5073996;28;19906;-95
2022/01/24 13:56:55;;;;;;;;;;;;;;;;;;5073820;28;19999;-95
2022/01/24 13:59:20;;;;;;;;;;;;;;;;;;5073856;28;19909;-94
2022/01/24 14:01:45;;;;;;;;;;;;;;;;;;5073772;28;19976;-95
2022/01/24 14:04:10;;;;;;;;;;;;;;;;;;5073818;28;20439;-95
2022/01/24 14:06:35;;;;;;;;;;;;;;;;;;5073732;28;19991;-95
2022/01/24 14:09:00;;;;;;;;;;;;;;;;;;5073691;28;19995;-94
2022/01/24 14:11:26;;;;;;;;;;;;;;;;;;5073622;28;20344;-94
2022/01/24 14:13:51;;;;;;;;;;;;;;;;;;5073634;28;19905;-95
2022/01/24 14:16:23;;;;;;;;;;;;;;;;;;5073447;28;19912;-95
2022/01/24 14:18:49;;;;;;;;;;;;;;;;;;5073568;28;19904;-94
2022/01/24 14:21:14;;;;;;;;;;;;;;;;;;5073556;28;20385;-94
2022/01/24 14:23:39;;;;;;;;;;;;;;;;;;5073599;28;19914;-95
2022/01/24 14:26:04;;;;;;;;;;;;;;;;;;5073523;28;20370;-95
2022/01/24 14:28:29;;;;;;;;;;;;;;;;;;5074418;28;20320;-94
2022/01/24 14:30:55;;;;;;;;;;;;;;;;;;5073379;28;19908;-95
2022/01/24 14:33:20;;;;;;;;;;;;;;;;;;5073629;28;19950;-96
2022/01/24 14:35:46;;;;;;;;;;;;;;;;;;5077646;28;20256;-95
2022/01/24 14:38:11;;;;;;;;;;;;;;;;;;5077523;28;19994;-95
2022/01/24 14:40:36;;;;;;;;;;;;;;;;;;5077621;28;19925;-95
2022/01/24 14:45:46;;;;;;;;;;;;;;;;;;5078342;28;19965;-95
2022/01/24 14:48:11;;;;;;;;;;;;;;;;;;5077423;28;19904;-95
2022/01/24 14:50:36;;;;;;;;;;;;;;;;;;5077251;28;19908;-94
2022/01/24 14:53:04;;;;;;;;;;;;;;;;;;5077248;28;19904;-94
2022/01/24 14:55:29;;;;;;;;;;;;;;;;;;5077430;28;19961;-95
2022/01/24 14:57:54;;;;;;;;;;;;;;;;;;5077181;28;19908;-95
2022/01/24 15:00:19;;;;;;;;;;;;;;;;;;5077202;28;19908;-94
2022/01/24 15:02:44;;;;;;;;;;;;;;;;;;5077168;28;20275;-94
2022/01/24 15:05:11;;;;;;;;;;;;;;;;;;5076990;28;19908;-94
2022/01/24 15:07:36;;;;;;;;;;;;;;;;;;5077063;28;20329;-95
2022/01/24 15:10:01;;;;;;;;;;;;;;;;;;5076937;28;19947;-94
2022/01/24 15:12:26;;;;;;;;;;;;;;;;;;5076981;28;19912;-94
2022/01/24 15:14:51;;;;;;;;;;;;;;;;;;5076802;28;20011;-95
2022/01/24 15:17:39;;;;;;;;;;;;;;;;;;5076863;28;19911;-94
2022/01/24 15:25:36;;;;;;;;;;;;;;;;;;5077860;28;20275;-94
2022/01/24 15:28:01;;;;;;;;;;;;;;;;;;5076738;28;19958;-94
2022/01/24 15:30:26;;;;;;;;;;;;;;;;;;5076564;28;19979;-95
2022/01/24 15:32:51;;;;;;;;;;;;;;;;;;5076704;28;19904;-95
2022/01/24 15:35:17;;;;;;;;;;;;;;;;;;5076389;28;19999;-94
2022/01/24 15:37:42;;;;;;;;;;;;;;;;;;5076606;28;20019;-95
2022/01/24 15:40:07;;;;;;;;;;;;;;;;;;5076496;28;20008;-94
2022/01/24 15:43:00;;;;;;;;;;;;;;;;;;5076425;28;20407;-94
2022/01/24 15:47:55;;;;;;;;;;;;;;;;;;5077653;28;19904;-95
2022/01/24 15:50:23;;;;;;;;;;;;;;;;;;5076930;28;20014;-95
2022/01/24 15:52:48;;;;;;;;;;;;;;;;;;5076182;28;19995;-95
2022/01/24 15:55:15;;;;;;;;;;;;;;;;;;5076094;28;19944;-94
2022/01/24 15:57:41;;;;;;;;;;;;;;;;;;5076130;28;19904;-95
2022/01/24 16:00:07;;;;;;;;;;;;;;;;;;5076005;28;19949;-95
2022/01/24 16:02:32;;;;;;;;;;;;;;;;;;5076048;28;19970;-94
2022/01/24 16:04:58;;;;;;;;;;;;;;;;;;5075864;28;19912;-94
2022/01/24 16:07:23;;;;;;;;;;;;;;;;;;5075941;28;19911;-94
2022/01/24 16:09:48;;;;;;;;;;;;;;;;;;5075735;28;19915;-95
2022/01/24 16:12:13;;;;;;;;;;;;;;;;;;5075754;28;20042;-95
2022/01/24 16:14:38;;;;;;;;;;;;;;;;;;5075924;28;20003;-94
2022/01/24 16:17:03;;;;;;;;;;;;;;;;;;5075818;28;19911;-95
2022/01/24 16:19:30;;;;;;;;;;;;;;;;;;5075580;28;19982;-95
2022/01/24 16:22:06;;;;;;;;;;;;;;;;;;5075731;28;20263;-95
2022/01/24 16:26:56;;;;;;;;;;;;;;;;;;5076596;28;20006;-94
2022/01/24 16:29:21;;;;;;;;;;;;;;;;;;5075351;28;20363;-94
2022/01/24 16:31:47;;;;;;;;;;;;;;;;;;5075452;28;19954;-95
2022/01/24 16:34:12;;;;;;;;;;;;;;;;;;5075461;28;19935;-94
2022/01/24 16:36:37;;;;;;;;;;;;;;;;;;5075340;28;20382;-95
2022/01/24 16:39:04;;;;;;;;;;;;;;;;;;5075331;28;19991;-94
2022/01/24 16:41:40;;;;;;;;;;;;;;;;;;5075498;28;19915;-94
2022/01/24 16:47:12;;;;;;;;;;;;;;;;;;5034692;28;19913;-95
2022/01/24 16:49:37;;;;;;;;;;;;;;;;;;5065025;28;19908;-94
2022/01/24 16:52:03;;;;;;;;;;;;;;;;;;5075025;28;19905;-94
2022/01/24 16:54:29;;;;;;;;;;;;;;;;;;5075052;28;19999;-94
2022/01/24 16:56:54;;;;;;;;;;;;;;;;;;5074140;28;19911;-95
2022/01/24 16:59:19;;;;;;;;;;;;;;;;;;5074863;28;19908;-95
2022/01/24 17:01:44;;;;;;;;;;;;;;;;;;5075162;28;20425;-94
2022/01/24 17:04:09;;;;;;;;;;;;;;;;;;5074707;28;19950;-94
2022/01/24 17:06:35;;;;;;;;;;;;;;;;;;5074698;28;19991;-94
2022/01/24 17:09:00;;;;;;;;;;;;;;;;;;5074807;28;19998;-94
2022/01/24 17:11:29;;;;;;;;;;;;;;;;;;5074573;28;19912;-94
2022/01/24 17:13:54;;;;;;;;;;;;;;;;;;5074560;28;19908;-94
2022/01/24 17:16:22;;;;;;;;;;;;;;;;;;5074582;28;19953;-94
2022/01/24 17:18:47;;;;;;;;;;;;;;;;;;5074574;28;19905;-94
2022/01/24 17:21:14;;;;;;;;;;;;;;;;;;5074520;28;19915;-95
2022/01/24 17:23:39;;;;;;;;;;;;;;;;;;5074286;28;19915;-94
2022/01/24 17:26:05;;;;;;;;;;;;;;;;;;5073913;28;19904;-94
2022/01/24 17:28:30;;;;;;;;;;;;;;;;;;5074212;28;20360;-94
2022/01/24 17:30:55;;;;;;;;;;;;;;;;;;5074268;28;20360;-94
2022/01/24 17:33:20;;;;;;;;;;;;;;;;;;5074128;28;19908;-94
2022/01/24 17:35:45;;;;;;;;;;;;;;;;;;5074257;28;20021;-95
2022/01/24 17:38:11;;;;;;;;;;;;;;;;;;5074127;28;19908;-94
2022/01/24 17:40:36;;;;;;;;;;;;;;;;;;5074153;28;20375;-94
2022/01/24 17:43:01;;;;;;;;;;;;;;;;;;5073990;28;19911;-94
2022/01/24 17:45:26;;;;;;;;;;;;;;;;;;5074068;28;19911;-94
2022/01/24 17:47:51;;;;;;;;;;;;;;;;;;5074013;28;19904;-94
2022/01/24 17:50:16;;;;;;;;;;;;;;;;;;5073926;28;19908;-94
2022/01/24 17:52:41;;;;;;;;;;;;;;;;;;5073884;28;19909;-93
2022/01/24 17:55:06;;;;;;;;;;;;;;;;;;5073981;28;19932;-94
2022/01/24 17:57:31;;;;;;;;;;;;;;;;;;5073897;28;19916;-94
2022/01/24 17:59:56;;;;;;;;;;;;;;;;;;5073858;28;19928;-94
2022/01/24 18:02:21;;;;;;;;;;;;;;;;;;5073832;28;20415;-94
2022/01/24 18:04:47;;;;;;;;;;;;;;;;;;5073822;28;19904;-94
2022/01/24 18:07:13;;;;;;;;;;;;;;;;;;5073808;28;19911;-93
2022/01/24 18:09:39;;;;;;;;;;;;;;;;;;5073702;28;20011;-93
2022/01/24 18:12:04;;;;;;;;;;;;;;;;;;5073755;28;19951;-93
2022/01/24 18:14:29;;;;;;;;;;;;;;;;;;5073686;28;20275;-93
2022/01/24 18:16:54;;;;;;;;;;;;;;;;;;5073613;28;19911;-93
2022/01/24 18:19:20;;;;;;;;;;;;;;;;;;5073714;28;19915;-93
2022/01/24 18:21:45;;;;;;;;;;;;;;;;;;5073632;28;19912;-92
2022/01/24 18:24:10;;;;;;;;;;;;;;;;;;5073521;28;19904;-93
2022/01/24 18:26:35;;;;;;;;;;;;;;;;;;5073524;28;20275;-92
2022/01/24 18:29:00;;;;;;;;;;;;;;;;;;5073492;28;20409;-93
2022/01/24 18:31:26;;;;;;;;;;;;;;;;;;5073365;28;19909;-93
2022/01/24 18:33:51;;;;;;;;;;;;;;;;;;5073365;28;19905;-93
2022/01/24 18:36:16;;;;;;;;;;;;;;;;;;5073518;28;19905;-93
2022/01/24 18:38:41;;;;;;;;;;;;;;;;;;5073339;28;20011;-93
2022/01/24 18:41:06;;;;;;;;;;;;;;;;;;5073472;28;20019;-93
2022/01/24 18:43:35;;;;;;;;;;;;;;;;;;5073420;28;19911;-93
2022/01/24 18:46:00;;;;;;;;;;;;;;;;;;5073412;28;19908;-93
2022/01/24 18:48:25;;;;;;;;;;;;;;;;;;5073220;28;19911;-93
2022/01/24 18:50:50;;;;;;;;;;;;;;;;;;5073273;28;19919;-93
2022/01/24 18:53:15;;;;;;;;;;;;;;;;;;5073257;28;19911;-93